Salt Point, Louisiana
Current Conditions -  °F | °C
As of 9:55 AM on Friday 31 Oct 2014 (Local Time) from KPTN Reporting Station
Clear Clear  
Wind Chill: 66°   Ceiling: Unl
Heat Index: 66°   Visibility: 10mi
Dew Point: 54°   Wind: 7mph
Humidity: 64%   Direction: 330°NNW
Pressure: 30.12"   Gusts: NA
Location:  29.52°N, 91.55°W
Report Text: KPTN 311455Z AUTO 33006KT 10SM CLR 19/12 A3012 RMK AO1 52010
Loading
Personal Weather Stations






























Interactive Weather Map
Tropical Storm Tracking
New forecast layout! Learn more

10-Day Weather Forecast

Advertisements
Track Severe Weather on mobile